sensor_id;sensor_type;location;lat;lon;timestamp;P1;durP1;ratioP1;P2;durP2;ratioP2
76176;SDS011;64938;47.696;8.066;2022-11-14T00:02:18;172.30;;;20.07;;
76176;SDS011;64938;47.696;8.066;2022-11-14T00:04:44;377.60;;;28.43;;
76176;SDS011;64938;47.696;8.066;2022-11-14T00:07:10;345.63;;;25.83;;
76176;SDS011;64938;47.696;8.066;2022-11-14T00:09:36;463.87;;;28.67;;
76176;SDS011;64938;47.696;8.066;2022-11-14T00:12:03;428.70;;;27.00;;
76176;SDS011;64938;47.696;8.066;2022-11-14T00:14:29;227.93;;;22.03;;
76176;SDS011;64938;47.696;8.066;2022-11-14T00:16:55;251.53;;;20.83;;
76176;SDS011;64938;47.696;8.066;2022-11-14T00:19:21;163.83;;;19.20;;
76176;SDS011;64938;47.696;8.066;2022-11-14T00:21:47;86.73;;;16.80;;
76176;SDS011;64938;47.696;8.066;2022-11-14T00:24:13;56.27;;;14.57;;
76176;SDS011;64938;47.696;8.066;2022-11-14T00:26:39;63.37;;;14.10;;
76176;SDS011;64938;47.696;8.066;2022-11-14T00:29:05;78.83;;;15.70;;
76176;SDS011;64938;47.696;8.066;2022-11-14T00:31:30;31.93;;;11.83;;
76176;SDS011;64938;47.696;8.066;2022-11-14T00:33:56;91.63;;;15.10;;
76176;SDS011;64938;47.696;8.066;2022-11-14T00:36:21;35.70;;;12.27;;
76176;SDS011;64938;47.696;8.066;2022-11-14T00:38:47;17.90;;;10.43;;
76176;SDS011;64938;47.696;8.066;2022-11-14T00:41:16;17.63;;;10.67;;
76176;SDS011;64938;47.696;8.066;2022-11-14T00:43:42;15.50;;;10.73;;
76176;SDS011;64938;47.696;8.066;2022-11-14T00:46:08;15.20;;;10.40;;
76176;SDS011;64938;47.696;8.066;2022-11-14T00:48:34;12.73;;;9.17;;
76176;SDS011;64938;47.696;8.066;2022-11-14T00:51:02;9.23;;;6.50;;
76176;SDS011;64938;47.696;8.066;2022-11-14T00:53:28;7.23;;;5.93;;
76176;SDS011;64938;47.696;8.066;2022-11-14T00:56:03;8.90;;;6.30;;
76176;SDS011;64938;47.696;8.066;2022-11-14T00:58:29;8.67;;;6.10;;
76176;SDS011;64938;47.696;8.066;2022-11-14T01:00:55;11.63;;;7.10;;
76176;SDS011;64938;47.696;8.066;2022-11-14T01:03:21;7.80;;;5.60;;
76176;SDS011;64938;47.696;8.066;2022-11-14T01:05:48;9.07;;;6.10;;
76176;SDS011;64938;47.696;8.066;2022-11-14T01:08:15;9.83;;;6.83;;
76176;SDS011;64938;47.696;8.066;2022-11-14T01:10:43;6.57;;;5.87;;
76176;SDS011;64938;47.696;8.066;2022-11-14T01:13:11;7.87;;;6.23;;
76176;SDS011;64938;47.696;8.066;2022-11-14T01:15:39;9.37;;;6.20;;
76176;SDS011;64938;47.696;8.066;2022-11-14T01:18:09;8.00;;;6.00;;
76176;SDS011;64938;47.696;8.066;2022-11-14T01:20:39;8.13;;;6.03;;
76176;SDS011;64938;47.696;8.066;2022-11-14T01:23:06;11.20;;;6.17;;
76176;SDS011;64938;47.696;8.066;2022-11-14T01:25:33;7.07;;;5.47;;
76176;SDS011;64938;47.696;8.066;2022-11-14T01:27:59;10.43;;;5.80;;
76176;SDS011;64938;47.696;8.066;2022-11-14T01:30:25;8.40;;;5.30;;
76176;SDS011;64938;47.696;8.066;2022-11-14T01:32:51;8.63;;;6.00;;
76176;SDS011;64938;47.696;8.066;2022-11-14T01:35:16;10.17;;;7.30;;
76176;SDS011;64938;47.696;8.066;2022-11-14T01:37:42;16.57;;;9.93;;
76176;SDS011;64938;47.696;8.066;2022-11-14T01:40:08;16.57;;;11.00;;
76176;SDS011;64938;47.696;8.066;2022-11-14T01:42:34;8.47;;;5.63;;
76176;SDS011;64938;47.696;8.066;2022-11-14T01:45:00;9.87;;;5.73;;
76176;SDS011;64938;47.696;8.066;2022-11-14T01:47:28;10.33;;;5.83;;
76176;SDS011;64938;47.696;8.066;2022-11-14T01:49:57;9.70;;;5.87;;
76176;SDS011;64938;47.696;8.066;2022-11-14T01:52:26;8.83;;;6.20;;
76176;SDS011;64938;47.696;8.066;2022-11-14T01:54:54;16.07;;;6.07;;
76176;SDS011;64938;47.696;8.066;2022-11-14T01:57:23;13.43;;;7.40;;
76176;SDS011;64938;47.696;8.066;2022-11-14T01:59:53;11.70;;;6.73;;
76176;SDS011;64938;47.696;8.066;2022-11-14T02:02:21;9.13;;;5.90;;
76176;SDS011;64938;47.696;8.066;2022-11-14T02:04:50;11.83;;;6.40;;
76176;SDS011;64938;47.696;8.066;2022-11-14T02:07:20;8.27;;;6.10;;
76176;SDS011;64938;47.696;8.066;2022-11-14T02:09:47;11.00;;;6.30;;
76176;SDS011;64938;47.696;8.066;2022-11-14T02:12:14;9.80;;;7.20;;
76176;SDS011;64938;47.696;8.066;2022-11-14T02:14:42;12.80;;;7.70;;
76176;SDS011;64938;47.696;8.066;2022-11-14T02:17:10;15.70;;;8.10;;
76176;SDS011;64938;47.696;8.066;2022-11-14T02:19:40;27.47;;;11.70;;
76176;SDS011;64938;47.696;8.066;2022-11-14T02:22:15;23.83;;;12.23;;
76176;SDS011;64938;47.696;8.066;2022-11-14T02:24:42;173.20;;;21.47;;
76176;SDS011;64938;47.696;8.066;2022-11-14T02:27:08;117.20;;;17.00;;
76176;SDS011;64938;47.696;8.066;2022-11-14T02:29:35;149.57;;;19.17;;
76176;SDS011;64938;47.696;8.066;2022-11-14T02:32:01;95.07;;;17.40;;
76176;SDS011;64938;47.696;8.066;2022-11-14T02:34:27;411.77;;;31.67;;
76176;SDS011;64938;47.696;8.066;2022-11-14T02:36:53;559.23;;;36.80;;
76176;SDS011;64938;47.696;8.066;2022-11-14T02:39:22;98.27;;;18.97;;
76176;SDS011;64938;47.696;8.066;2022-11-14T02:41:49;421.70;;;31.80;;
76176;SDS011;64938;47.696;8.066;2022-11-14T02:44:15;541.20;;;36.60;;
76176;SDS011;64938;47.696;8.066;2022-11-14T02:46:41;502.07;;;35.60;;
76176;SDS011;64938;47.696;8.066;2022-11-14T02:49:07;639.63;;;40.70;;
76176;SDS011;64938;47.696;8.066;2022-11-14T02:51:32;467.10;;;39.40;;
76176;SDS011;64938;47.696;8.066;2022-11-14T02:53:58;581.93;;;37.60;;
76176;SDS011;64938;47.696;8.066;2022-11-14T02:56:23;345.57;;;28.47;;
76176;SDS011;64938;47.696;8.066;2022-11-14T02:58:49;292.53;;;27.73;;
76176;SDS011;64938;47.696;8.066;2022-11-14T03:01:16;778.23;;;47.37;;
76176;SDS011;64938;47.696;8.066;2022-11-14T03:03:41;501.50;;;36.47;;
76176;SDS011;64938;47.696;8.066;2022-11-14T03:06:07;201.73;;;25.90;;
76176;SDS011;64938;47.696;8.066;2022-11-14T03:08:33;629.00;;;44.23;;
76176;SDS011;64938;47.696;8.066;2022-11-14T03:11:03;611.57;;;43.23;;
76176;SDS011;64938;47.696;8.066;2022-11-14T03:13:29;461.60;;;38.27;;
76176;SDS011;64938;47.696;8.066;2022-11-14T03:15:55;370.83;;;35.37;;
76176;SDS011;64938;47.696;8.066;2022-11-14T03:18:21;164.70;;;26.67;;
76176;SDS011;64938;47.696;8.066;2022-11-14T03:20:46;61.53;;;20.90;;
76176;SDS011;64938;47.696;8.066;2022-11-14T03:23:12;208.60;;;28.60;;
76176;SDS011;64938;47.696;8.066;2022-11-14T03:25:38;139.10;;;24.47;;
76176;SDS011;64938;47.696;8.066;2022-11-14T03:28:03;101.93;;;25.17;;
76176;SDS011;64938;47.696;8.066;2022-11-14T03:30:29;72.87;;;18.23;;
76176;SDS011;64938;47.696;8.066;2022-11-14T03:32:55;585.80;;;39.40;;
76176;SDS011;64938;47.696;8.066;2022-11-14T03:35:21;332.60;;;29.50;;
76176;SDS011;64938;47.696;8.066;2022-11-14T03:37:47;261.70;;;29.30;;
76176;SDS011;64938;47.696;8.066;2022-11-14T03:40:13;63.00;;;20.33;;
76176;SDS011;64938;47.696;8.066;2022-11-14T03:42:39;252.10;;;28.40;;
76176;SDS011;64938;47.696;8.066;2022-11-14T03:45:04;48.13;;;18.90;;
76176;SDS011;64938;47.696;8.066;2022-11-14T03:47:30;146.50;;;25.03;;
76176;SDS011;64938;47.696;8.066;2022-11-14T03:49:56;33.60;;;15.33;;
76176;SDS011;64938;47.696;8.066;2022-11-14T03:52:22;40.60;;;18.60;;
76176;SDS011;64938;47.696;8.066;2022-11-14T03:54:47;32.63;;;16.33;;
76176;SDS011;64938;47.696;8.066;2022-11-14T03:57:14;29.47;;;13.20;;
76176;SDS011;64938;47.696;8.066;2022-11-14T03:59:39;25.00;;;13.30;;
76176;SDS011;64938;47.696;8.066;2022-11-14T04:02:05;27.07;;;13.50;;
76176;SDS011;64938;47.696;8.066;2022-11-14T04:04:31;23.37;;;13.13;;
76176;SDS011;64938;47.696;8.066;2022-11-14T04:06:56;28.37;;;13.00;;
76176;SDS011;64938;47.696;8.066;2022-11-14T04:09:22;31.40;;;14.00;;
76176;SDS011;64938;47.696;8.066;2022-11-14T04:11:48;28.03;;;13.93;;
76176;SDS011;64938;47.696;8.066;2022-11-14T04:14:13;29.97;;;13.27;;
76176;SDS011;64938;47.696;8.066;2022-11-14T04:16:39;28.87;;;13.50;;
76176;SDS011;64938;47.696;8.066;2022-11-14T04:19:05;61.23;;;20.17;;
76176;SDS011;64938;47.696;8.066;2022-11-14T04:21:30;193.50;;;25.23;;
76176;SDS011;64938;47.696;8.066;2022-11-14T04:23:56;492.00;;;38.97;;
76176;SDS011;64938;47.696;8.066;2022-11-14T04:26:22;349.80;;;33.50;;
76176;SDS011;64938;47.696;8.066;2022-11-14T04:28:47;471.43;;;40.03;;
76176;SDS011;64938;47.696;8.066;2022-11-14T04:31:13;668.40;;;45.00;;
76176;SDS011;64938;47.696;8.066;2022-11-14T04:33:39;629.93;;;43.50;;
76176;SDS011;64938;47.696;8.066;2022-11-14T04:36:04;578.27;;;43.13;;
76176;SDS011;64938;47.696;8.066;2022-11-14T04:38:30;739.87;;;51.37;;
76176;SDS011;64938;47.696;8.066;2022-11-14T04:40:56;1087.80;;;61.80;;
76176;SDS011;64938;47.696;8.066;2022-11-14T04:43:22;843.27;;;53.07;;
76176;SDS011;64938;47.696;8.066;2022-11-14T04:45:48;1142.47;;;66.63;;
76176;SDS011;64938;47.696;8.066;2022-11-14T04:48:13;690.07;;;48.00;;
76176;SDS011;64938;47.696;8.066;2022-11-14T04:50:39;1102.60;;;61.53;;
76176;SDS011;64938;47.696;8.066;2022-11-14T04:53:05;1370.63;;;76.27;;
76176;SDS011;64938;47.696;8.066;2022-11-14T04:55:30;1104.70;;;64.63;;
76176;SDS011;64938;47.696;8.066;2022-11-14T04:57:56;1358.77;;;74.13;;
76176;SDS011;64938;47.696;8.066;2022-11-14T05:00:23;737.57;;;52.23;;
76176;SDS011;64938;47.696;8.066;2022-11-14T05:02:49;1158.20;;;74.00;;
76176;SDS011;64938;47.696;8.066;2022-11-14T05:05:15;1238.17;;;70.30;;
76176;SDS011;64938;47.696;8.066;2022-11-14T05:07:41;1179.43;;;70.10;;
76176;SDS011;64938;47.696;8.066;2022-11-14T05:10:07;1085.93;;;63.13;;
76176;SDS011;64938;47.696;8.066;2022-11-14T05:12:33;864.80;;;57.33;;
76176;SDS011;64938;47.696;8.066;2022-11-14T05:15:01;1346.03;;;74.47;;
76176;SDS011;64938;47.696;8.066;2022-11-14T05:17:29;487.60;;;40.90;;
76176;SDS011;64938;47.696;8.066;2022-11-14T05:19:55;575.63;;;45.83;;
76176;SDS011;64938;47.696;8.066;2022-11-14T05:22:21;240.27;;;34.47;;
76176;SDS011;64938;47.696;8.066;2022-11-14T05:24:46;538.63;;;44.60;;
76176;SDS011;64938;47.696;8.066;2022-11-14T05:27:12;1375.60;;;80.40;;
76176;SDS011;64938;47.696;8.066;2022-11-14T05:29:38;962.37;;;61.53;;
76176;SDS011;64938;47.696;8.066;2022-11-14T05:32:03;1352.30;;;79.37;;
76176;SDS011;64938;47.696;8.066;2022-11-14T05:34:29;365.23;;;36.83;;
76176;SDS011;64938;47.696;8.066;2022-11-14T05:36:55;438.03;;;41.77;;
76176;SDS011;64938;47.696;8.066;2022-11-14T05:39:20;1527.73;;;82.47;;
76176;SDS011;64938;47.696;8.066;2022-11-14T05:41:46;1523.87;;;82.00;;
76176;SDS011;64938;47.696;8.066;2022-11-14T05:44:12;909.97;;;59.90;;
76176;SDS011;64938;47.696;8.066;2022-11-14T05:46:37;1039.00;;;65.83;;
76176;SDS011;64938;47.696;8.066;2022-11-14T05:49:03;799.20;;;58.30;;
76176;SDS011;64938;47.696;8.066;2022-11-14T05:51:29;1306.53;;;74.80;;
76176;SDS011;64938;47.696;8.066;2022-11-14T05:53:54;1216.60;;;74.67;;
76176;SDS011;64938;47.696;8.066;2022-11-14T05:56:20;793.47;;;54.30;;
76176;SDS011;64938;47.696;8.066;2022-11-14T05:58:46;604.30;;;46.87;;
76176;SDS011;64938;47.696;8.066;2022-11-14T06:01:15;770.43;;;53.67;;
76176;SDS011;64938;47.696;8.066;2022-11-14T06:03:43;704.03;;;51.17;;
76176;SDS011;64938;47.696;8.066;2022-11-14T06:06:11;684.87;;;50.80;;
76176;SDS011;64938;47.696;8.066;2022-11-14T06:08:39;883.53;;;58.10;;
76176;SDS011;64938;47.696;8.066;2022-11-14T06:11:07;995.83;;;69.73;;
76176;SDS011;64938;47.696;8.066;2022-11-14T06:13:34;644.50;;;50.47;;
76176;SDS011;64938;47.696;8.066;2022-11-14T06:16:01;456.20;;;40.20;;
76176;SDS011;64938;47.696;8.066;2022-11-14T06:18:55;374.53;;;38.67;;
76176;SDS011;64938;47.696;8.066;2022-11-14T06:21:22;242.03;;;34.37;;
76176;SDS011;64938;47.696;8.066;2022-11-14T06:23:49;995.70;;;65.63;;
76176;SDS011;64938;47.696;8.066;2022-11-14T06:26:30;709.43;;;52.30;;
76176;SDS011;64938;47.696;8.066;2022-11-14T06:28:57;763.67;;;59.47;;
76176;SDS011;64938;47.696;8.066;2022-11-14T06:31:23;659.07;;;55.23;;
76176;SDS011;64938;47.696;8.066;2022-11-14T06:33:50;686.90;;;57.60;;
76176;SDS011;64938;47.696;8.066;2022-11-14T06:36:16;975.23;;;73.80;;
76176;SDS011;64938;47.696;8.066;2022-11-14T06:38:42;569.70;;;52.97;;
76176;SDS011;64938;47.696;8.066;2022-11-14T06:41:11;621.80;;;55.03;;
76176;SDS011;64938;47.696;8.066;2022-11-14T06:43:39;241.80;;;45.37;;
76176;SDS011;64938;47.696;8.066;2022-11-14T06:46:07;418.60;;;54.43;;
76176;SDS011;64938;47.696;8.066;2022-11-14T06:48:34;408.57;;;54.83;;
76176;SDS011;64938;47.696;8.066;2022-11-14T06:51:04;168.70;;;41.67;;
76176;SDS011;64938;47.696;8.066;2022-11-14T06:53:34;197.27;;;43.13;;
76176;SDS011;64938;47.696;8.066;2022-11-14T06:56:02;153.13;;;43.70;;
76176;SDS011;64938;47.696;8.066;2022-11-14T06:58:30;183.30;;;41.27;;
76176;SDS011;64938;47.696;8.066;2022-11-14T07:01:06;285.50;;;48.80;;
76176;SDS011;64938;47.696;8.066;2022-11-14T07:03:50;162.97;;;42.67;;
76176;SDS011;64938;47.696;8.066;2022-11-14T07:06:18;112.20;;;35.93;;
76176;SDS011;64938;47.696;8.066;2022-11-14T07:08:45;85.33;;;34.47;;
76176;SDS011;64938;47.696;8.066;2022-11-14T07:11:12;98.53;;;36.27;;
76176;SDS011;64938;47.696;8.066;2022-11-14T07:13:50;97.37;;;33.53;;
76176;SDS011;64938;47.696;8.066;2022-11-14T07:16:17;84.17;;;35.43;;
76176;SDS011;64938;47.696;8.066;2022-11-14T07:18:43;102.63;;;35.10;;
76176;SDS011;64938;47.696;8.066;2022-11-14T07:21:10;111.77;;;35.23;;
76176;SDS011;64938;47.696;8.066;2022-11-14T07:23:40;79.07;;;30.33;;
76176;SDS011;64938;47.696;8.066;2022-11-14T07:26:10;76.63;;;28.67;;
76176;SDS011;64938;47.696;8.066;2022-11-14T07:28:37;64.93;;;30.27;;
76176;SDS011;64938;47.696;8.066;2022-11-14T07:31:04;65.30;;;29.00;;
76176;SDS011;64938;47.696;8.066;2022-11-14T07:33:31;71.47;;;28.67;;
76176;SDS011;64938;47.696;8.066;2022-11-14T07:35:57;87.07;;;31.00;;
76176;SDS011;64938;47.696;8.066;2022-11-14T07:38:23;80.53;;;31.00;;
76176;SDS011;64938;47.696;8.066;2022-11-14T07:40:53;88.10;;;29.80;;
76176;SDS011;64938;47.696;8.066;2022-11-14T07:43:21;74.30;;;29.80;;
76176;SDS011;64938;47.696;8.066;2022-11-14T07:45:48;67.50;;;29.47;;
76176;SDS011;64938;47.696;8.066;2022-11-14T07:48:14;60.57;;;27.10;;
76176;SDS011;64938;47.696;8.066;2022-11-14T07:50:40;76.37;;;28.57;;
76176;SDS011;64938;47.696;8.066;2022-11-14T07:53:07;70.30;;;27.50;;
76176;SDS011;64938;47.696;8.066;2022-11-14T07:55:34;61.00;;;28.10;;
76176;SDS011;64938;47.696;8.066;2022-11-14T07:58:00;60.27;;;27.27;;
76176;SDS011;64938;47.696;8.066;2022-11-14T08:00:29;88.50;;;28.63;;
76176;SDS011;64938;47.696;8.066;2022-11-14T08:02:55;101.90;;;29.47;;
76176;SDS011;64938;47.696;8.066;2022-11-14T08:05:21;472.20;;;47.37;;
76176;SDS011;64938;47.696;8.066;2022-11-14T08:07:50;399.83;;;40.20;;
76176;SDS011;64938;47.696;8.066;2022-11-14T08:10:17;689.90;;;55.97;;
76176;SDS011;64938;47.696;8.066;2022-11-14T08:12:43;204.03;;;29.30;;
76176;SDS011;64938;47.696;8.066;2022-11-14T08:15:11;527.43;;;39.87;;
76176;SDS011;64938;47.696;8.066;2022-11-14T08:17:37;784.90;;;52.20;;
76176;SDS011;64938;47.696;8.066;2022-11-14T08:20:04;534.40;;;41.47;;
76176;SDS011;64938;47.696;8.066;2022-11-14T08:22:33;208.83;;;29.53;;
76176;SDS011;64938;47.696;8.066;2022-11-14T08:24:59;1142.40;;;67.73;;
76176;SDS011;64938;47.696;8.066;2022-11-14T08:27:24;877.37;;;52.63;;
76176;SDS011;64938;47.696;8.066;2022-11-14T08:29:56;751.67;;;46.73;;
76176;SDS011;64938;47.696;8.066;2022-11-14T08:32:22;1074.23;;;59.03;;
76176;SDS011;64938;47.696;8.066;2022-11-14T08:34:57;608.87;;;41.47;;
76176;SDS011;64938;47.696;8.066;2022-11-14T08:37:27;562.63;;;38.27;;
76176;SDS011;64938;47.696;8.066;2022-11-14T08:39:53;642.97;;;46.87;;
76176;SDS011;64938;47.696;8.066;2022-11-14T08:42:19;1504.50;;;77.63;;
76176;SDS011;64938;47.696;8.066;2022-11-14T08:44:45;1109.97;;;53.47;;
76176;SDS011;64938;47.696;8.066;2022-11-14T08:47:10;835.93;;;45.63;;
76176;SDS011;64938;47.696;8.066;2022-11-14T08:49:36;1227.03;;;55.93;;
76176;SDS011;64938;47.696;8.066;2022-11-14T08:52:03;1218.90;;;56.83;;
76176;SDS011;64938;47.696;8.066;2022-11-14T08:54:29;1072.27;;;53.57;;
76176;SDS011;64938;47.696;8.066;2022-11-14T08:56:58;1140.63;;;53.13;;
76176;SDS011;64938;47.696;8.066;2022-11-14T08:59:24;1599.67;;;68.03;;
76176;SDS011;64938;47.696;8.066;2022-11-14T09:01:56;1064.03;;;48.37;;
76176;SDS011;64938;47.696;8.066;2022-11-14T09:04:25;551.60;;;32.23;;
76176;SDS011;64938;47.696;8.066;2022-11-14T09:06:59;451.17;;;26.70;;
76176;SDS011;64938;47.696;8.066;2022-11-14T09:09:30;860.10;;;40.50;;
76176;SDS011;64938;47.696;8.066;2022-11-14T09:11:56;1256.90;;;54.23;;
76176;SDS011;64938;47.696;8.066;2022-11-14T09:14:22;779.87;;;36.47;;
76176;SDS011;64938;47.696;8.066;2022-11-14T09:16:50;828.47;;;41.17;;
76176;SDS011;64938;47.696;8.066;2022-11-14T09:19:22;642.40;;;34.07;;
76176;SDS011;64938;47.696;8.066;2022-11-14T09:21:47;1208.30;;;51.47;;
76176;SDS011;64938;47.696;8.066;2022-11-14T09:24:13;632.17;;;32.60;;
76176;SDS011;64938;47.696;8.066;2022-11-14T09:26:42;804.27;;;41.13;;
76176;SDS011;64938;47.696;8.066;2022-11-14T09:29:07;667.13;;;32.40;;
76176;SDS011;64938;47.696;8.066;2022-11-14T09:31:33;430.07;;;27.77;;
76176;SDS011;64938;47.696;8.066;2022-11-14T09:33:59;478.00;;;29.47;;
76176;SDS011;64938;47.696;8.066;2022-11-14T09:36:25;535.03;;;29.63;;
76176;SDS011;64938;47.696;8.066;2022-11-14T09:38:51;718.73;;;34.90;;
76176;SDS011;64938;47.696;8.066;2022-11-14T09:41:25;248.50;;;21.07;;
76176;SDS011;64938;47.696;8.066;2022-11-14T09:44:07;696.87;;;36.67;;
76176;SDS011;64938;47.696;8.066;2022-11-14T11:07:28;17.20;;;10.17;;
76176;SDS011;64938;47.696;8.066;2022-11-14T11:10:21;13.90;;;10.57;;
76176;SDS011;64938;47.696;8.066;2022-11-14T11:13:10;12.83;;;11.23;;
76176;SDS011;64938;47.696;8.066;2022-11-14T11:15:39;11.40;;;10.10;;
76176;SDS011;64938;47.696;8.066;2022-11-14T11:18:22;14.00;;;10.50;;
76176;SDS011;64938;47.696;8.066;2022-11-14T11:21:02;12.43;;;10.40;;
76176;SDS011;64938;47.696;8.066;2022-11-14T11:23:29;12.37;;;9.20;;
76176;SDS011;64938;47.696;8.066;2022-11-14T11:25:59;11.63;;;9.30;;
76176;SDS011;64938;47.696;8.066;2022-11-14T11:28:31;10.50;;;9.23;;
76176;SDS011;64938;47.696;8.066;2022-11-14T11:30:59;11.33;;;8.50;;
76176;SDS011;64938;47.696;8.066;2022-11-14T11:33:29;10.07;;;9.07;;
76176;SDS011;64938;47.696;8.066;2022-11-14T11:35:59;9.33;;;8.40;;
76176;SDS011;64938;47.696;8.066;2022-11-14T11:38:42;9.73;;;8.73;;
76176;SDS011;64938;47.696;8.066;2022-11-14T11:43:53;9.80;;;8.47;;
76176;SDS011;64938;47.696;8.066;2022-11-14T11:46:23;11.07;;;9.23;;
76176;SDS011;64938;47.696;8.066;2022-11-14T11:55:00;10.00;;;8.40;;
76176;SDS011;64938;47.696;8.066;2022-11-14T11:57:34;8.93;;;8.13;;
76176;SDS011;64938;47.696;8.066;2022-11-14T12:00:05;9.10;;;8.20;;
76176;SDS011;64938;47.696;8.066;2022-11-14T12:02:40;8.50;;;7.70;;
76176;SDS011;64938;47.696;8.066;2022-11-14T12:05:11;8.80;;;7.90;;
76176;SDS011;64938;47.696;8.066;2022-11-14T12:07:44;9.60;;;8.33;;
76176;SDS011;64938;47.696;8.066;2022-11-14T12:10:19;10.30;;;9.13;;
76176;SDS011;64938;47.696;8.066;2022-11-14T12:12:55;8.30;;;7.60;;
76176;SDS011;64938;47.696;8.066;2022-11-14T12:29:52;10.10;;;9.20;;
76176;SDS011;64938;47.696;8.066;2022-11-14T12:32:29;9.83;;;8.83;;
76176;SDS011;64938;47.696;8.066;2022-11-14T12:35:12;10.00;;;7.83;;
76176;SDS011;64938;47.696;8.066;2022-11-14T12:37:44;8.90;;;8.10;;
76176;SDS011;64938;47.696;8.066;2022-11-14T12:40:31;9.10;;;8.20;;
76176;SDS011;64938;47.696;8.066;2022-11-14T12:43:01;8.90;;;8.07;;
76176;SDS011;64938;47.696;8.066;2022-11-14T12:48:28;8.77;;;7.97;;
76176;SDS011;64938;47.696;8.066;2022-11-14T12:50:58;9.50;;;8.47;;
76176;SDS011;64938;47.696;8.066;2022-11-14T12:59:12;8.60;;;7.90;;
76176;SDS011;64938;47.696;8.066;2022-11-14T13:07:21;9.03;;;8.13;;
76176;SDS011;64938;47.696;8.066;2022-11-14T13:13:15;8.30;;;7.57;;
76176;SDS011;64938;47.696;8.066;2022-11-14T13:15:55;7.57;;;6.87;;
76176;SDS011;64938;47.696;8.066;2022-11-14T13:18:50;8.40;;;7.60;;
76176;SDS011;64938;47.696;8.066;2022-11-14T13:22:16;8.37;;;7.57;;
76176;SDS011;64938;47.696;8.066;2022-11-14T13:27:51;7.43;;;6.83;;
76176;SDS011;64938;47.696;8.066;2022-11-14T13:30:26;7.60;;;6.90;;
76176;SDS011;64938;47.696;8.066;2022-11-14T13:36:26;8.90;;;8.00;;
76176;SDS011;64938;47.696;8.066;2022-11-14T13:42:37;8.17;;;7.40;;
76176;SDS011;64938;47.696;8.066;2022-11-14T13:45:16;7.80;;;7.10;;
76176;SDS011;64938;47.696;8.066;2022-11-14T13:51:02;8.47;;;7.50;;
76176;SDS011;64938;47.696;8.066;2022-11-14T13:53:30;8.90;;;8.00;;
76176;SDS011;64938;47.696;8.066;2022-11-14T14:01:41;8.60;;;7.80;;
76176;SDS011;64938;47.696;8.066;2022-11-14T14:11:42;7.67;;;6.97;;
76176;SDS011;64938;47.696;8.066;2022-11-14T14:46:10;7.57;;;5.03;;
76176;SDS011;64938;47.696;8.066;2022-11-14T14:48:39;5.50;;;5.00;;
76176;SDS011;64938;47.696;8.066;2022-11-14T14:51:12;5.53;;;5.03;;
76176;SDS011;64938;47.696;8.066;2022-11-14T14:53:39;6.63;;;5.53;;
76176;SDS011;64938;47.696;8.066;2022-11-14T14:56:18;5.67;;;5.17;;
76176;SDS011;64938;47.696;8.066;2022-11-14T14:58:45;6.00;;;5.30;;
76176;SDS011;64938;47.696;8.066;2022-11-14T15:01:12;5.80;;;5.20;;
76176;SDS011;64938;47.696;8.066;2022-11-14T15:03:47;5.80;;;5.30;;
76176;SDS011;64938;47.696;8.066;2022-11-14T15:06:43;9.30;;;5.10;;
76176;SDS011;64938;47.696;8.066;2022-11-14T15:09:31;5.97;;;4.60;;
76176;SDS011;64938;47.696;8.066;2022-11-14T15:12:28;5.07;;;4.57;;
76176;SDS011;64938;47.696;8.066;2022-11-14T15:15:18;6.23;;;4.60;;
76176;SDS011;64938;47.696;8.066;2022-11-14T15:18:13;6.03;;;4.10;;
76176;SDS011;64938;47.696;8.066;2022-11-14T15:21:26;3.83;;;3.40;;
76176;SDS011;64938;47.696;8.066;2022-11-14T15:24:19;5.93;;;4.33;;
76176;SDS011;64938;47.696;8.066;2022-11-14T15:27:17;4.77;;;4.27;;
76176;SDS011;64938;47.696;8.066;2022-11-14T15:31:57;5.83;;;5.23;;
76176;SDS011;64938;47.696;8.066;2022-11-14T15:36:02;10.90;;;9.20;;
76176;SDS011;64938;47.696;8.066;2022-11-14T15:38:38;8.43;;;7.73;;
76176;SDS011;64938;47.696;8.066;2022-11-14T15:47:56;7.93;;;7.20;;
76176;SDS011;64938;47.696;8.066;2022-11-14T15:50:56;7.07;;;6.43;;
76176;SDS011;64938;47.696;8.066;2022-11-14T15:53:38;8.03;;;7.23;;
76176;SDS011;64938;47.696;8.066;2022-11-14T15:56:19;7.13;;;6.30;;
76176;SDS011;64938;47.696;8.066;2022-11-14T15:59:14;8.63;;;6.50;;
76176;SDS011;64938;47.696;8.066;2022-11-14T16:01:55;9.20;;;7.27;;
76176;SDS011;64938;47.696;8.066;2022-11-14T16:05:18;7.10;;;6.40;;
76176;SDS011;64938;47.696;8.066;2022-11-14T16:08:58;6.57;;;5.37;;
76176;SDS011;64938;47.696;8.066;2022-11-14T16:12:25;6.20;;;5.60;;
76176;SDS011;64938;47.696;8.066;2022-11-14T16:14:56;6.70;;;5.90;;
76176;SDS011;64938;47.696;8.066;2022-11-14T16:17:39;9.10;;;7.53;;
76176;SDS011;64938;47.696;8.066;2022-11-14T16:20:28;6.07;;;5.57;;
76176;SDS011;64938;47.696;8.066;2022-11-14T16:23:06;8.20;;;6.60;;
76176;SDS011;64938;47.696;8.066;2022-11-14T16:25:56;8.87;;;6.20;;
76176;SDS011;64938;47.696;8.066;2022-11-14T16:28:48;6.40;;;5.80;;
76176;SDS011;64938;47.696;8.066;2022-11-14T16:31:41;5.57;;;5.07;;
76176;SDS011;64938;47.696;8.066;2022-11-14T16:34:36;6.07;;;5.50;;
76176;SDS011;64938;47.696;8.066;2022-11-14T16:37:50;6.03;;;5.53;;
76176;SDS011;64938;47.696;8.066;2022-11-14T16:40:17;6.63;;;5.97;;
76176;SDS011;64938;47.696;8.066;2022-11-14T16:42:53;7.67;;;6.60;;
76176;SDS011;64938;47.696;8.066;2022-11-14T16:45:20;7.77;;;6.70;;
76176;SDS011;64938;47.696;8.066;2022-11-14T16:47:46;10.97;;;7.83;;
76176;SDS011;64938;47.696;8.066;2022-11-14T16:50:15;8.00;;;7.20;;
76176;SDS011;64938;47.696;8.066;2022-11-14T16:52:44;10.53;;;7.70;;
76176;SDS011;64938;47.696;8.066;2022-11-14T16:55:10;9.27;;;7.63;;
76176;SDS011;64938;47.696;8.066;2022-11-14T17:01:21;10.07;;;9.07;;
76176;SDS011;64938;47.696;8.066;2022-11-14T17:04:11;8.43;;;7.30;;
76176;SDS011;64938;47.696;8.066;2022-11-14T17:06:38;10.70;;;9.00;;
76176;SDS011;64938;47.696;8.066;2022-11-14T17:09:22;9.83;;;7.57;;
76176;SDS011;64938;47.696;8.066;2022-11-14T17:11:52;9.20;;;8.03;;
76176;SDS011;64938;47.696;8.066;2022-11-14T17:14:26;7.70;;;7.00;;
76176;SDS011;64938;47.696;8.066;2022-11-14T17:17:22;10.23;;;7.33;;
76176;SDS011;64938;47.696;8.066;2022-11-14T17:20:47;7.70;;;7.00;;
76176;SDS011;64938;47.696;8.066;2022-11-14T17:24:31;7.33;;;6.70;;
76176;SDS011;64938;47.696;8.066;2022-11-14T17:27:35;8.17;;;7.07;;
76176;SDS011;64938;47.696;8.066;2022-11-14T17:30:13;9.43;;;7.50;;
76176;SDS011;64938;47.696;8.066;2022-11-14T17:32:40;8.80;;;8.00;;
76176;SDS011;64938;47.696;8.066;2022-11-14T17:35:06;10.47;;;8.30;;
76176;SDS011;64938;47.696;8.066;2022-11-14T17:37:33;7.57;;;6.77;;
76176;SDS011;64938;47.696;8.066;2022-11-14T17:40:01;8.50;;;6.90;;
76176;SDS011;64938;47.696;8.066;2022-11-14T17:42:30;7.53;;;6.70;;
76176;SDS011;64938;47.696;8.066;2022-11-14T17:44:55;8.77;;;6.67;;
76176;SDS011;64938;47.696;8.066;2022-11-14T17:47:25;7.30;;;6.60;;
76176;SDS011;64938;47.696;8.066;2022-11-14T17:49:52;6.93;;;5.90;;
76176;SDS011;64938;47.696;8.066;2022-11-14T17:52:18;7.53;;;6.40;;
76176;SDS011;64938;47.696;8.066;2022-11-14T17:54:44;8.83;;;6.97;;
76176;SDS011;64938;47.696;8.066;2022-11-14T17:57:10;7.63;;;6.83;;
76176;SDS011;64938;47.696;8.066;2022-11-14T17:59:39;7.67;;;6.87;;
76176;SDS011;64938;47.696;8.066;2022-11-14T18:02:09;7.20;;;6.60;;